Time;durP1;ratioP1;P1;durP2;ratioP2;P2;SDS_P1;SDS_P2;PMS_P1;PMS_P2;Temp;Humidity;BMP_temperature;BMP_pressure;BME280_temperature;BME280_humidity;BME280_pressure;Samples;Min_cycle;Max_cycle;Signal;HPM_P1;HPM_P2
2022/06/29 00:00:52;;;;;;;11.65;10.45;;;;;;;26.06;62.57;100657.37;1728068;80;21597;-48
2022/06/29 00:03:18;;;;;;;11.78;10.68;;;;;;;26.03;62.57;100655.11;1723307;80;21023;-48
2022/06/29 00:05:45;;;;;;;13.75;12.13;;;;;;;25.99;62.79;100659.30;1736918;80;21031;-48
2022/06/29 00:08:12;;;;;;;11.88;10.68;;;;;;;25.96;62.85;100661.08;1738695;80;20989;-48
2022/06/29 00:10:39;;;;;;;12.88;11.30;;;;;;;25.93;62.94;100661.47;1730693;80;21016;-48
2022/06/29 00:13:06;;;;;;;13.60;12.20;;;;;;;25.95;62.99;100666.16;1738625;80;21235;-48
2022/06/29 00:15:34;;;;;;;14.23;12.82;;;;;;;25.93;63.12;100662.30;1722278;80;20988;-48
2022/06/29 00:18:01;;;;;;;20.65;12.03;;;;;;;25.97;62.85;100659.20;1738904;80;21047;-48
2022/06/29 00:20:27;;;;;;;16.10;13.30;;;;;;;25.97;62.41;100655.97;1738116;80;21043;-50
2022/06/29 00:22:54;;;;;;;14.50;12.63;;;;;;;25.93;61.78;100655.55;1729207;80;21043;-48
2022/06/29 00:25:20;;;;;;;15.28;12.82;;;;;;;25.89;61.70;100661.09;1730845;80;21130;-49
2022/06/29 00:27:46;;;;;;;14.65;13.10;;;;;;;25.85;61.38;100657.16;1731572;80;21094;-48
2022/06/29 00:30:14;;;;;;;14.03;12.63;;;;;;;25.81;60.94;100655.14;1730199;80;21067;-48
2022/06/29 00:32:41;;;;;;;14.60;13.13;;;;;;;25.75;60.66;100661.67;1737511;80;21071;-49
2022/06/29 00:35:08;;;;;;;15.15;13.55;;;;;;;25.69;60.72;100669.30;1731477;80;21494;-48
2022/06/29 00:37:35;;;;;;;15.28;13.10;;;;;;;25.64;60.59;100660.19;1727462;80;21137;-48
2022/06/29 00:40:03;;;;;;;13.83;12.30;;;;;;;25.59;60.56;100664.36;1728187;80;21063;-48
2022/06/29 00:42:31;;;;;;;14.30;12.95;;;;;;;25.59;60.85;100667.59;1721449;80;21079;-48
2022/06/29 00:44:58;;;;;;;13.50;12.05;;;;;;;25.63;60.88;100694.39;1733602;81;21063;-48
2022/06/29 00:47:24;;;;;;;12.45;11.05;;;;;;;25.64;62.04;100682.59;1719348;80;21062;-48
2022/06/29 00:49:51;;;;;;;13.95;11.97;;;;;;;25.62;62.95;100677.94;1723456;80;21110;-48
2022/06/29 00:52:19;;;;;;;12.60;11.25;;;;;;;25.57;63.55;100681.77;1716806;80;21073;-49
2022/06/29 00:54:53;;;;;;;13.10;11.65;;;;;;;25.55;63.90;100686.55;1728175;82;21526;-49
2022/06/29 00:57:23;;;;;;;14.45;11.68;;;;;;;25.53;64.30;100678.69;1732357;80;21056;-48
2022/06/29 00:59:52;;;;;;;14.33;12.53;;;;;;;25.54;64.57;100672.27;1732768;80;21074;-48
2022/06/29 01:02:22;;;;;;;13.25;11.85;;;;;;;25.55;64.72;100682.52;1740527;80;21111;-48
2022/06/29 01:04:49;;;;;;;12.90;11.60;;;;;;;25.55;64.88;100687.91;1728148;80;21502;-48
2022/06/29 01:07:23;;;;;;;13.22;11.93;;;;;;;25.55;64.89;100684.71;1718348;80;22234;-48
2022/06/29 01:09:49;;;;;;;13.43;11.97;;;;;;;25.55;64.91;100686.55;1731978;80;21118;-48
2022/06/29 01:12:16;;;;;;;13.40;11.78;;;;;;;25.49;64.99;100680.17;1729116;82;21059;-48
2022/06/29 01:14:44;;;;;;;12.88;11.57;;;;;;;25.45;65.08;100683.50;1722529;80;21123;-48
2022/06/29 01:17:12;;;;;;;12.90;11.60;;;;;;;25.45;65.22;100684.84;1720351;80;22115;-48
2022/06/29 01:19:40;;;;;;;12.50;10.38;;;;;;;25.48;65.31;100691.16;1722955;80;21955;-48
2022/06/29 01:22:15;;;;;;;13.20;11.90;;;;;;;25.50;65.63;100683.18;1732501;80;21094;-48
2022/06/29 01:24:44;;;;;;;13.55;11.20;;;;;;;25.50;65.85;100682.33;1736140;80;21043;-48
2022/06/29 01:27:12;;;;;;;13.78;11.12;;;;;;;25.46;65.94;100687.33;1740195;81;21136;-48
2022/06/29 01:29:39;;;;;;;15.15;11.50;;;;;;;25.42;66.09;100682.08;1735885;80;21540;-48
2022/06/29 01:32:06;;;;;;;12.33;10.95;;;;;;;25.39;66.31;100681.97;1731585;80;21612;-48
2022/06/29 01:34:33;;;;;;;14.13;10.85;;;;;;;25.41;66.29;100685.80;1737626;80;21098;-52
2022/06/29 01:37:00;;;;;;;13.45;11.35;;;;;;;25.45;66.30;100694.27;1731197;80;21526;-49
2022/06/29 01:39:28;;;;;;;12.68;11.38;;;;;;;25.45;66.35;100699.66;1739907;80;22052;-48
2022/06/29 01:41:54;;;;;;;12.85;11.22;;;;;;;25.45;66.31;100700.48;1717545;80;21051;-48
2022/06/29 01:44:21;;;;;;;13.72;12.25;;;;;;;25.44;66.61;100702.88;1716909;80;21043;-48
2022/06/29 01:46:47;;;;;;;15.35;12.37;;;;;;;25.44;66.47;100699.38;1715884;80;21059;-48
2022/06/29 01:49:14;;;;;;;12.88;11.55;;;;;;;25.42;66.42;100709.52;1739308;80;20988;-48
2022/06/29 01:51:40;;;;;;;13.05;11.25;;;;;;;25.36;66.45;100705.81;1723571;80;22042;-48
2022/06/29 01:54:07;;;;;;;11.57;9.80;;;;;;;25.27;66.55;100701.69;1733162;82;22205;-48
2022/06/29 01:56:34;;;;;;;17.37;12.10;;;;;;;25.23;66.63;100699.91;1738506;80;21502;-48
2022/06/29 01:59:01;;;;;;;13.68;11.53;;;;;;;25.19;67.23;100709.46;1740513;80;21478;-48
2022/06/29 02:01:28;;;;;;;14.85;10.80;;;;;;;25.17;67.84;100706.98;1746875;80;21061;-48
2022/06/29 02:03:54;;;;;;;13.32;10.93;;;;;;;25.13;67.76;100706.26;1742971;80;21119;-48
2022/06/29 02:06:21;;;;;;;13.38;11.18;;;;;;;25.05;67.89;100710.02;1744472;80;21050;-48
2022/06/29 02:08:48;;;;;;;13.80;12.35;;;;;;;24.97;67.98;100708.37;1749856;80;21144;-49
2022/06/29 02:11:14;;;;;;;15.53;11.90;;;;;;;24.89;68.03;100709.94;1729752;80;21020;-49
2022/06/29 02:13:41;;;;;;;12.78;10.55;;;;;;;24.87;68.17;100714.70;1732497;80;21066;-48
2022/06/29 02:16:08;;;;;;;13.45;10.48;;;;;;;24.87;68.10;100712.02;1738705;80;21140;-48
2022/06/29 02:18:35;;;;;;;14.28;11.33;;;;;;;24.86;68.21;100711.69;1743803;80;21098;-49
2022/06/29 02:21:02;;;;;;;17.98;11.90;;;;;;;24.87;67.90;100724.13;1751914;80;21058;-48
2022/06/29 02:23:29;;;;;;;13.08;11.68;;;;;;;24.89;67.67;100720.70;1736040;80;21012;-48
2022/06/29 02:25:55;;;;;;;12.47;11.18;;;;;;;24.88;67.62;100731.67;1744865;80;21050;-48
2022/06/29 02:28:22;;;;;;;12.93;10.75;;;;;;;24.82;67.54;100726.62;1753306;80;21167;-48
2022/06/29 02:36:19;;;;;;;12.63;11.33;;;;;;;24.89;66.96;100734.69;1752082;80;21082;-48
2022/06/29 02:38:46;;;;;;;12.53;11.20;;;;;;;24.88;67.15;100741.94;1751192;80;21050;-49
2022/06/29 02:41:13;;;;;;;12.68;11.33;;;;;;;24.88;67.43;100740.59;1747475;80;21156;-48
2022/06/29 02:43:40;;;;;;;12.58;11.22;;;;;;;24.90;67.45;100735.83;1738667;80;21048;-48
2022/06/29 02:46:06;;;;;;;15.85;11.83;;;;;;;24.89;67.41;100731.99;1750170;80;21102;-48
2022/06/29 02:48:33;;;;;;;12.75;11.18;;;;;;;24.86;67.57;100738.61;1747994;80;21031;-49
2022/06/29 02:51:00;;;;;;;14.23;10.85;;;;;;;24.88;67.67;100742.44;1735809;80;21042;-48
2022/06/29 02:53:26;;;;;;;14.03;11.70;;;;;;;24.91;67.67;100745.53;1735563;80;21132;-49
2022/06/29 02:55:53;;;;;;;13.45;11.50;;;;;;;24.99;67.72;100753.40;1742102;80;21078;-48
2022/06/29 02:58:20;;;;;;;13.45;11.73;;;;;;;25.02;67.68;100751.64;1751735;80;21090;-48
2022/06/29 03:00:46;;;;;;;13.35;12.05;;;;;;;25.01;67.64;100752.66;1733897;80;21027;-49
2022/06/29 03:03:13;;;;;;;14.43;12.15;;;;;;;25.04;67.40;100756.29;1733861;80;21054;-49
2022/06/29 03:05:39;;;;;;;14.83;11.88;;;;;;;25.04;67.30;100757.63;1739347;80;21389;-49
2022/06/29 03:08:06;;;;;;;12.93;11.45;;;;;;;25.04;67.30;100760.33;1753574;80;21055;-48
2022/06/29 03:10:33;;;;;;;13.85;11.95;;;;;;;25.09;67.21;100764.27;1746761;80;21553;-48
2022/06/29 03:13:00;;;;;;;13.08;11.30;;;;;;;25.17;67.11;100757.32;1741988;80;21026;-48
2022/06/29 03:15:26;;;;;;;12.47;11.18;;;;;;;25.21;67.26;100759.36;1749124;80;21113;-49
2022/06/29 03:17:55;;;;;;;13.10;11.53;;;;;;;25.25;67.12;100758.45;1739477;80;21143;-48
2022/06/29 03:20:22;;;;;;;13.72;12.30;;;;;;;25.25;67.31;100753.06;1751136;80;21039;-49
2022/06/29 03:22:49;;;;;;;14.13;12.63;;;;;;;25.26;67.31;100753.38;1739729;81;21046;-48
2022/06/29 03:25:16;;;;;;;12.10;10.80;;;;;;;25.30;67.13;100750.59;1746251;80;21419;-49
2022/06/29 03:27:43;;;;;;;12.00;10.80;;;;;;;25.34;67.00;100744.26;1726846;80;21017;-49
2022/06/29 03:30:11;;;;;;;11.65;10.23;;;;;;;25.41;66.95;100745.05;1744256;80;21139;-48
2022/06/29 03:32:39;;;;;;;12.93;10.25;;;;;;;25.47;66.99;100744.22;1752263;80;21019;-48
2022/06/29 03:35:07;;;;;;;15.70;11.50;;;;;;;25.57;66.71;100745.09;1744694;80;21225;-49
2022/06/29 03:37:34;;;;;;;14.70;11.48;;;;;;;25.60;66.47;100740.62;1745886;80;21016;-48
2022/06/29 03:40:01;;;;;;;13.13;11.25;;;;;;;25.63;66.00;100746.13;1749736;80;21062;-48
2022/06/29 03:42:29;;;;;;;13.43;11.53;;;;;;;25.64;65.05;100743.72;1753769;80;21126;-49
2022/06/29 03:44:55;;;;;;;12.73;11.20;;;;;;;25.62;64.45;100741.27;1735805;80;21596;-49
2022/06/29 03:47:22;;;;;;;12.93;10.80;;;;;;;25.59;64.14;100739.81;1748662;80;21500;-48
2022/06/29 03:49:49;;;;;;;12.20;10.32;;;;;;;25.63;63.96;100749.64;1735465;81;21126;-48
2022/06/29 03:52:17;;;;;;;11.35;10.13;;;;;;;25.68;63.66;100746.31;1742986;81;21066;-49
2022/06/29 03:54:43;;;;;;;11.95;10.18;;;;;;;25.73;63.07;100747.31;1744256;81;21119;-49
2022/06/29 03:57:10;;;;;;;12.05;10.53;;;;;;;25.74;61.93;100748.16;1737450;80;21078;-48
2022/06/29 03:59:36;;;;;;;13.78;10.35;;;;;;;25.77;61.02;100745.01;1752848;80;20999;-48
2022/06/29 04:02:03;;;;;;;12.50;10.38;;;;;;;25.80;60.64;100738.37;1747070;81;21706;-50
2022/06/29 04:04:30;;;;;;;11.43;10.25;;;;;;;25.83;60.78;100740.64;1737116;80;21126;-48
2022/06/29 04:06:58;;;;;;;12.78;10.98;;;;;;;25.83;60.87;100741.99;1751044;80;21435;-48
2022/06/29 04:09:25;;;;;;;12.58;11.28;;;;;;;25.84;60.90;100732.84;1752628;80;21489;-48
2022/06/29 04:11:53;;;;;;;11.38;10.20;;;;;;;25.86;61.11;100734.30;1727783;80;21046;-49
2022/06/29 04:14:26;;;;;;;10.93;9.60;;;;;;;25.91;61.31;100734.48;1739666;80;21065;-49
2022/06/29 04:16:54;;;;;;;13.20;10.65;;;;;;;26.03;61.38;100729.78;1738177;80;21117;-48
2022/06/29 04:19:21;;;;;;;12.15;10.95;;;;;;;26.12;61.10;100726.59;1751502;80;21073;-48
2022/06/29 04:21:48;;;;;;;13.62;10.32;;;;;;;26.27;60.64;100726.81;1735661;80;21031;-49
2022/06/29 04:24:15;;;;;;;12.07;9.68;;;;;;;26.31;60.38;100724.82;1733197;80;21063;-49
2022/06/29 04:26:42;;;;;;;12.30;10.08;;;;;;;26.39;59.89;100719.66;1744879;80;21102;-49
2022/06/29 04:29:09;;;;;;;11.38;10.25;;;;;;;26.43;59.38;100722.23;1753623;80;21489;-48
2022/06/29 04:31:35;;;;;;;12.10;9.08;;;;;;;26.47;59.09;100725.32;1750636;80;22229;-48
2022/06/29 04:34:03;;;;;;;9.78;8.20;;;;;;;26.54;58.42;100725.27;1749469;80;21043;-49
2022/06/29 04:36:30;;;;;;;11.38;8.83;;;;;;;26.58;57.32;100728.66;1743577;81;21035;-49
2022/06/29 04:38:56;;;;;;;9.23;7.55;;;;;;;26.57;56.88;100730.23;1733499;80;21137;-49
2022/06/29 04:41:23;;;;;;;10.30;8.58;;;;;;;26.58;56.36;100725.96;1746569;80;21066;-49
2022/06/29 04:43:49;;;;;;;9.53;7.95;;;;;;;26.58;55.56;100723.77;1743141;80;22635;-49
2022/06/29 04:46:22;;;;;;;8.60;7.37;;;;;;;26.60;54.93;100727.91;1737439;80;21046;-49
2022/06/29 04:48:56;;;;;;;9.90;8.78;;;;;;;26.62;54.74;100723.64;1754104;80;21000;-48
2022/06/29 04:51:24;;;;;;;10.08;8.35;;;;;;;26.62;54.72;100726.34;1752390;80;21082;-49
2022/06/29 04:53:54;;;;;;;8.98;7.47;;;;;;;26.63;55.00;100719.91;1734423;81;21062;-48
2022/06/29 04:56:18;;;;;;;9.35;8.35;;;;;;;26.62;54.85;100720.95;1751249;80;22053;-48
2022/06/29 04:58:45;;;;;;;10.08;8.08;;;;;;;26.59;54.31;100715.45;1750395;80;21461;-48
2022/06/29 05:01:11;;;;;;;9.93;8.50;;;;;;;26.59;54.22;100720.85;1751843;80;20997;-48
2022/06/29 05:03:38;;;;;;;8.90;8.00;;;;;;;26.58;53.89;100722.42;1744186;80;21466;-48
2022/06/29 05:06:05;;;;;;;8.90;8.00;;;;;;;26.59;53.66;100720.03;1741830;80;21513;-49
2022/06/29 05:08:33;;;;;;;9.95;8.23;;;;;;;26.61;53.60;100717.94;1748839;81;21546;-48
2022/06/29 05:10:59;;;;;;;11.45;9.55;;;;;;;26.63;53.67;100714.52;1748735;80;21090;-48
2022/06/29 05:13:26;;;;;;;10.68;8.88;;;;;;;26.63;53.65;100711.81;1752253;80;21055;-49
2022/06/29 05:15:52;;;;;;;10.72;9.15;;;;;;;26.64;53.86;100714.83;1752089;80;20996;-48
2022/06/29 05:18:19;;;;;;;9.90;8.73;;;;;;;26.64;53.73;100714.30;1744375;80;21426;-49
2022/06/29 05:20:46;;;;;;;10.23;9.05;;;;;;;26.65;53.30;100715.14;1753692;80;21136;-49
2022/06/29 05:23:14;;;;;;;9.80;8.80;;;;;;;26.64;53.30;100724.27;1743979;80;21542;-48
2022/06/29 05:25:40;;;;;;;9.35;8.25;;;;;;;26.63;53.57;100724.80;1735408;80;21604;-49
2022/06/29 05:28:08;;;;;;;9.88;8.85;;;;;;;26.64;53.54;100722.92;1738424;80;21458;-50
2022/06/29 05:30:35;;;;;;;9.73;8.70;;;;;;;26.67;53.58;100721.95;1753065;80;22249;-49
2022/06/29 05:33:01;;;;;;;9.83;8.45;;;;;;;26.72;54.06;100725.34;1729388;80;21789;-49
2022/06/29 05:35:33;;;;;;;10.70;9.60;;;;;;;26.78;54.15;100723.62;1733307;80;22370;-49
2022/06/29 05:37:57;;;;;;;10.05;8.83;;;;;;;26.83;54.45;100719.73;1737764;80;21055;-49
2022/06/29 05:40:24;;;;;;;9.68;8.38;;;;;;;26.87;54.53;100726.36;1745506;80;21055;-49
2022/06/29 05:42:51;;;;;;;10.75;8.58;;;;;;;26.92;54.31;100720.30;1750121;80;21134;-48
2022/06/29 05:45:19;;;;;;;10.80;9.70;;;;;;;26.94;54.44;100724.94;1750544;80;21185;-49
2022/06/29 05:47:46;;;;;;;12.07;8.88;;;;;;;26.96;54.05;100728.23;1747953;80;21031;-49
2022/06/29 05:50:13;;;;;;;9.35;8.35;;;;;;;27.00;54.43;100727.58;1744175;80;21059;-49
2022/06/29 05:52:41;;;;;;;10.05;9.03;;;;;;;27.06;54.53;100729.89;1737829;80;21074;-49
2022/06/29 05:55:08;;;;;;;11.88;9.48;;;;;;;27.12;54.09;100724.11;1729531;80;20995;-50
2022/06/29 05:57:35;;;;;;;10.15;9.08;;;;;;;27.17;53.97;100722.94;1748923;80;21767;-49
2022/06/29 06:00:04;;;;;;;11.00;8.73;;;;;;;27.24;53.91;100720.45;1753933;80;21415;-50
2022/06/29 06:02:32;;;;;;;10.78;9.68;;;;;;;27.31;53.84;100719.59;1741771;80;21070;-49
2022/06/29 06:04:59;;;;;;;12.15;9.53;;;;;;;27.38;54.17;100713.04;1748718;80;21067;-49
2022/06/29 06:07:25;;;;;;;10.38;9.28;;;;;;;27.46;54.14;100706.52;1742898;80;20976;-49
2022/06/29 06:09:52;;;;;;;13.93;10.23;;;;;;;27.55;54.11;100712.43;1741312;80;21137;-49
2022/06/29 06:12:18;;;;;;;10.93;9.83;;;;;;;27.61;54.03;100717.75;1737988;80;21059;-48
2022/06/29 06:14:45;;;;;;;10.50;9.40;;;;;;;27.69;53.59;100723.89;1737731;80;21050;-48
2022/06/29 06:17:12;;;;;;;11.12;9.98;;;;;;;27.75;53.49;100721.63;1753763;80;21129;-48
2022/06/29 06:19:38;;;;;;;10.53;9.45;;;;;;;27.80;53.02;100717.71;1765275;80;21660;-49
2022/06/29 06:22:04;;;;;;;11.20;10.10;;;;;;;27.82;52.74;100724.25;1768724;80;21203;-48
2022/06/29 06:24:31;;;;;;;13.60;10.08;;;;;;;27.81;53.20;100723.43;1756657;80;21124;-48
2022/06/29 06:26:58;;;;;;;14.23;11.12;;;;;;;27.87;53.56;100721.67;1757631;80;21097;-49
2022/06/29 06:29:24;;;;;;;10.63;9.53;;;;;;;27.93;53.59;100726.20;1762435;80;21348;-49
2022/06/29 06:31:51;;;;;;;11.08;9.85;;;;;;;27.98;53.34;100719.05;1753746;80;21054;-49
2022/06/29 06:34:17;;;;;;;10.60;9.58;;;;;;;28.06;52.88;100713.84;1752538;80;21118;-48
2022/06/29 06:36:44;;;;;;;11.15;10.08;;;;;;;28.12;53.50;100711.55;1744217;80;21015;-49
2022/06/29 06:39:10;;;;;;;12.00;10.80;;;;;;;28.17;53.55;100706.27;1731324;80;21118;-48
2022/06/29 06:41:37;;;;;;;11.43;9.90;;;;;;;28.25;52.85;100705.13;1742040;80;21043;-48
2022/06/29 06:44:04;;;;;;;11.80;10.60;;;;;;;28.30;52.37;100709.30;1744664;80;21267;-53
2022/06/29 06:46:30;;;;;;;11.10;9.93;;;;;;;28.34;52.42;100705.09;1741168;80;21130;-49
2022/06/29 06:48:57;;;;;;;12.15;10.25;;;;;;;28.39;51.84;100708.97;1744595;80;21453;-48
2022/06/29 06:51:24;;;;;;;12.07;10.38;;;;;;;28.38;51.45;100708.66;1757515;80;21047;-48
2022/06/29 06:53:51;;;;;;;11.80;9.95;;;;;;;28.40;51.70;100693.04;1755796;80;21090;-48
2022/06/29 06:56:17;;;;;;;11.45;10.35;;;;;;;28.44;51.86;100704.49;1747211;80;21094;-48
2022/06/29 06:58:44;;;;;;;11.35;10.25;;;;;;;28.50;51.72;100691.92;1759945;80;21146;-48
2022/06/29 07:01:11;;;;;;;11.35;10.25;;;;;;;28.55;51.71;100693.39;1757709;80;21391;-48
2022/06/29 07:03:37;;;;;;;11.20;10.08;;;;;;;28.59;51.64;100689.72;1764177;80;21196;-48
2022/06/29 07:06:07;;;;;;;12.30;11.00;;;;;;;28.62;51.56;100687.90;1764553;80;21053;-48
2022/06/29 07:08:35;;;;;;;11.65;10.45;;;;;;;28.65;51.46;100689.60;1756547;80;21490;-48
2022/06/29 07:11:03;;;;;;;12.63;9.85;;;;;;;28.69;51.01;100694.01;1768446;80;21130;-48
2022/06/29 07:13:30;;;;;;;10.70;9.70;;;;;;;28.74;51.15;100689.25;1762014;80;21101;-47
2022/06/29 07:15:57;;;;;;;11.35;10.15;;;;;;;28.80;50.65;100689.13;1763731;80;21083;-48
2022/06/29 07:18:24;;;;;;;12.82;10.72;;;;;;;28.86;50.77;100681.39;1762477;80;21072;-48
2022/06/29 07:20:51;;;;;;;14.05;10.75;;;;;;;28.93;50.89;100679.09;1770092;80;21034;-48
2022/06/29 07:23:17;;;;;;;12.03;10.20;;;;;;;28.98;50.85;100681.37;1764284;80;23193;-48
2022/06/29 07:25:45;;;;;;;12.15;10.70;;;;;;;28.99;50.60;100674.91;1769234;80;21037;-48
2022/06/29 07:28:11;;;;;;;11.53;10.43;;;;;;;29.01;50.64;100670.07;1743440;80;21072;-48
2022/06/29 07:30:38;;;;;;;11.48;10.28;;;;;;;29.02;50.34;100665.49;1764790;80;21873;-48
2022/06/29 07:33:04;;;;;;;10.80;9.70;;;;;;;29.01;50.65;100671.42;1759881;80;21545;-48
2022/06/29 07:35:31;;;;;;;12.23;10.82;;;;;;;29.01;51.02;100672.78;1761597;80;21073;-48
2022/06/29 07:37:58;;;;;;;11.75;10.65;;;;;;;29.06;50.55;100666.66;1757970;80;20999;-48
2022/06/29 07:40:24;;;;;;;11.12;10.00;;;;;;;29.08;50.48;100663.16;1764870;80;21059;-48
2022/06/29 07:42:51;;;;;;;11.55;10.48;;;;;;;29.11;50.65;100665.94;1752928;80;21062;-48
2022/06/29 07:45:18;;;;;;;10.80;9.75;;;;;;;29.17;50.64;100664.99;1750088;80;21077;-48
2022/06/29 07:47:45;;;;;;;11.22;9.40;;;;;;;29.22;49.45;100667.30;1730022;80;21130;-48
2022/06/29 07:50:12;;;;;;;10.70;9.60;;;;;;;29.24;49.23;100667.87;1752532;80;21019;-48
2022/06/29 07:52:40;;;;;;;11.25;10.05;;;;;;;29.26;49.51;100663.57;1748060;80;21062;-48
2022/06/29 07:55:07;;;;;;;11.43;10.32;;;;;;;29.28;49.85;100669.03;1739323;81;21098;-48
2022/06/29 07:57:34;;;;;;;12.05;10.85;;;;;;;29.34;49.26;100667.26;1737725;81;21066;-49
2022/06/29 08:00:03;;;;;;;10.20;9.20;;;;;;;29.38;49.61;100664.34;1753806;80;21746;-48
2022/06/29 08:02:31;;;;;;;10.53;9.53;;;;;;;29.42;49.89;100662.81;1733108;80;21062;-48
2022/06/29 08:04:59;;;;;;;10.70;9.20;;;;;;;29.50;49.83;100667.55;1744366;80;21015;-48
2022/06/29 08:07:26;;;;;;;11.30;10.20;;;;;;;29.57;48.80;100659.58;1752453;80;21067;-48
2022/06/29 08:09:53;;;;;;;11.90;10.75;;;;;;;29.67;49.05;100654.03;1754958;81;21070;-48
2022/06/29 08:12:20;;;;;;;10.72;9.63;;;;;;;29.74;48.38;100655.55;1731775;80;21126;-49
2022/06/29 08:14:47;;;;;;;11.40;10.30;;;;;;;29.81;48.68;100652.71;1753718;80;21612;-48
2022/06/29 08:17:13;;;;;;;10.43;9.43;;;;;;;29.89;48.55;100652.83;1739873;80;21515;-48
2022/06/29 08:19:40;;;;;;;12.80;10.25;;;;;;;29.98;48.56;100652.19;1730365;80;21027;-48
2022/06/29 08:22:07;;;;;;;10.88;9.78;;;;;;;30.05;48.54;100649.31;1747514;80;21055;-49
2022/06/29 08:24:33;;;;;;;11.93;10.55;;;;;;;30.06;48.42;100640.12;1733822;80;21130;-48
2022/06/29 08:27:00;;;;;;;11.25;10.15;;;;;;;30.08;48.71;100638.52;1730765;80;21050;-48
2022/06/29 08:29:26;;;;;;;11.18;10.08;;;;;;;30.09;49.07;100643.67;1731750;80;21346;-48
2022/06/29 08:31:53;;;;;;;12.35;10.65;;;;;;;30.13;48.41;100635.34;1754398;80;21450;-48
2022/06/29 08:34:41;;;;;;;12.20;11.00;;;;;;;30.19;48.35;100642.50;1736591;80;21641;-48
2022/06/29 08:36:48;;;;;;;12.28;11.08;;;;;;;30.23;48.42;100643.34;1731078;80;21103;-48
2022/06/29 08:39:14;;;;;;;13.13;11.30;;;;;;;30.22;48.07;100647.14;1734795;80;21038;-48
2022/06/29 08:41:41;;;;;;;14.40;9.73;;;;;;;30.18;48.21;100647.63;1728285;80;21101;-48
2022/06/29 08:44:08;;;;;;;11.78;10.68;;;;;;;30.18;48.55;100651.70;1744409;80;21105;-48
2022/06/29 08:46:35;;;;;;;11.28;10.18;;;;;;;30.20;48.40;100659.05;1742810;80;21046;-48
2022/06/29 08:49:03;;;;;;;11.55;10.15;;;;;;;30.22;48.38;100663.42;1729936;80;21094;-49
2022/06/29 08:51:33;;;;;;;12.10;10.80;;;;;;;30.24;48.31;100658.02;1748610;80;21587;-48
2022/06/29 08:54:04;;;;;;;13.38;11.18;;;;;;;30.27;48.40;100657.53;1750544;80;21066;-48
2022/06/29 08:56:31;;;;;;;13.43;11.12;;;;;;;30.30;48.50;100658.40;1748173;80;21060;-48
2022/06/29 08:59:00;;;;;;;13.30;10.45;;;;;;;30.33;48.02;100655.73;1732683;80;21051;-48
2022/06/29 09:01:28;;;;;;;10.30;9.30;;;;;;;30.36;47.92;100653.38;1729327;81;21148;-48
2022/06/29 09:03:55;;;;;;;13.50;9.38;;;;;;;30.41;46.92;100653.16;1729650;82;21052;-49
2022/06/29 09:06:22;;;;;;;9.80;8.80;;;;;;;30.46;45.64;100655.40;1718154;80;21064;-48
2022/06/29 09:08:50;;;;;;;9.13;8.20;;;;;;;30.50;44.99;100651.67;1717052;80;21118;-48
2022/06/29 09:11:26;;;;;;;11.33;8.13;;;;;;;30.55;43.43;100644.96;1739752;80;21059;-49
2022/06/29 09:14:16;;;;;;;8.95;8.15;;;;;;;30.60;42.21;100648.27;1721607;80;21132;-48
2022/06/29 09:17:02;;;;;;;9.68;8.55;;;;;;;30.65;41.16;100648.33;1730898;82;20971;-48
2022/06/29 09:19:40;;;;;;;9.75;8.50;;;;;;;30.69;41.93;100644.06;1727690;80;21059;-48
2022/06/29 09:22:07;;;;;;;10.10;8.28;;;;;;;30.80;41.72;100643.65;1741358;80;21071;-48
2022/06/29 09:24:34;;;;;;;8.85;7.78;;;;;;;30.84;41.32;100644.27;1719617;80;21054;-48
2022/06/29 09:27:06;;;;;;;9.63;8.63;;;;;;;30.91;41.81;100650.32;1722170;80;21140;-48
2022/06/29 09:29:41;;;;;;;10.53;8.83;;;;;;;30.97;40.91;100639.55;1739317;80;21139;-48
2022/06/29 09:32:12;;;;;;;8.60;6.95;;;;;;;31.05;42.18;100643.19;1739635;80;21094;-48
2022/06/29 09:34:47;;;;;;;10.28;8.25;;;;;;;31.09;42.01;100644.34;1725468;80;21078;-48
2022/06/29 09:37:21;;;;;;;10.30;9.20;;;;;;;31.18;42.66;100640.08;1741140;80;21004;-48
2022/06/29 09:39:51;;;;;;;10.25;9.33;;;;;;;31.30;43.82;100635.35;1731223;80;21118;-49
2022/06/29 09:42:24;;;;;;;11.43;10.23;;;;;;;31.37;44.41;100632.95;1722185;80;21012;-49
2022/06/29 09:44:52;;;;;;;12.40;11.18;;;;;;;31.42;44.63;100634.36;1730312;82;21086;-48
2022/06/29 09:47:20;;;;;;;9.75;8.83;;;;;;;31.48;44.21;100626.00;1736260;80;21079;-48
2022/06/29 09:50:00;;;;;;;9.38;8.43;;;;;;;31.51;44.86;100627.44;1715253;82;21008;-49
2022/06/29 09:52:25;;;;;;;12.65;11.35;;;;;;;31.61;44.82;100626.17;1730351;80;21141;-49
2022/06/29 09:54:57;;;;;;;12.23;10.95;;;;;;;31.71;44.26;100622.73;1714303;82;21530;-48
2022/06/29 09:57:28;;;;;;;13.32;11.18;;;;;;;31.75;44.22;100619.77;1721433;80;21046;-48
2022/06/29 10:02:45;;;;;;;11.22;9.48;;;;;;;31.74;43.54;100620.02;1744256;80;21059;-48
2022/06/29 10:05:18;;;;;;;7.67;6.85;;;;;;;31.75;43.17;100616.23;1738049;80;21076;-48
2022/06/29 10:07:47;;;;;;;8.55;7.65;;;;;;;31.80;43.11;100613.55;1750983;80;21467;-48
2022/06/29 10:10:16;;;;;;;11.20;10.10;;;;;;;31.88;42.46;100609.00;1741303;80;21090;-49
2022/06/29 10:16:02;;;;;;;10.00;9.08;;;;;;;32.10;42.39;100612.19;1739680;80;21062;-48
2022/06/29 10:18:38;;;;;;;12.47;9.68;;;;;;;32.27;42.03;100607.95;1732107;80;21649;-49
2022/06/29 10:21:16;;;;;;;11.35;10.10;;;;;;;32.36;41.85;100604.48;1743987;80;21526;-48
2022/06/29 10:23:53;;;;;;;9.75;8.85;;;;;;;32.47;42.38;100605.89;1693122;82;21085;-49
2022/06/29 10:26:32;;;;;;;10.80;9.45;;;;;;;32.54;41.31;100609.20;1695765;83;21067;-49
2022/06/29 10:29:26;;;;;;;10.20;9.20;;;;;;;32.59;40.82;100604.59;1679954;83;21193;-49
2022/06/29 10:32:04;;;;;;;10.48;8.75;;;;;;;32.61;40.45;100602.99;1670204;83;21142;-49
2022/06/29 10:34:37;;;;;;;9.50;8.63;;;;;;;32.62;40.20;100596.47;1682167;83;21181;-49
2022/06/29 10:37:08;;;;;;;9.93;8.93;;;;;;;32.67;40.83;100595.13;1688535;83;21072;-49
2022/06/29 10:39:52;;;;;;;9.73;8.75;;;;;;;32.72;40.77;100591.06;1679394;83;21038;-49
2022/06/29 10:45:16;;;;;;;8.43;7.60;;;;;;;32.86;39.05;100575.59;1679315;83;21856;-49
2022/06/29 10:47:55;;;;;;;9.23;8.25;;;;;;;32.89;38.75;100575.06;1714698;82;20990;-53
2022/06/29 10:50:29;;;;;;;8.60;7.45;;;;;;;32.94;38.36;100569.63;1685262;83;21134;-49
2022/06/29 10:52:58;;;;;;;9.30;8.33;;;;;;;32.98;38.28;100561.17;1680960;83;21123;-52
2022/06/29 10:55:30;;;;;;;8.95;8.15;;;;;;;33.07;38.82;100552.77;1674928;85;21094;-49
2022/06/29 10:57:58;;;;;;;9.33;7.47;;;;;;;33.13;38.36;100553.03;1685118;83;21209;-49
2022/06/29 11:00:27;;;;;;;9.63;8.13;;;;;;;33.24;37.54;100548.45;1694455;83;21087;-49
2022/06/29 11:02:54;;;;;;;9.10;8.20;;;;;;;33.36;38.13;100536.48;1688192;84;21072;-49
2022/06/29 11:05:21;;;;;;;10.05;6.87;;;;;;;33.47;37.26;100538.95;1681656;83;21182;-48
2022/06/29 11:12:54;;;;;;;10.00;8.90;;;;;;;33.77;36.90;100529.67;1772081;79;22735;-48
2022/06/29 11:15:45;;;;;;;9.50;8.60;;;;;;;33.81;36.86;100532.95;1751557;81;21046;-49
2022/06/29 11:18:21;;;;;;;8.58;7.75;;;;;;;33.89;36.38;100530.20;1691643;83;21158;-49
2022/06/29 11:20:50;;;;;;;8.33;7.17;;;;;;;33.98;35.76;100524.46;1698074;83;21067;-49
2022/06/29 11:23:21;;;;;;;8.88;7.33;;;;;;;34.08;35.06;100508.61;1707250;83;21079;-48
2022/06/29 11:25:49;;;;;;;12.40;8.55;;;;;;;34.18;35.99;100511.83;1706179;83;21110;-50
2022/06/29 11:28:20;;;;;;;8.15;7.35;;;;;;;34.27;35.79;100510.77;1678440;83;21135;-49
2022/06/29 11:31:10;;;;;;;7.75;6.95;;;;;;;34.33;33.69;100502.80;1705219;83;21936;-49
2022/06/29 11:33:43;;;;;;;8.05;6.80;;;;;;;34.40;32.17;100504.71;1689482;83;21028;-48
2022/06/29 11:36:19;;;;;;;7.83;6.78;;;;;;;34.49;32.39;100503.02;1689173;83;21024;-49
2022/06/29 11:38:50;;;;;;;8.03;6.47;;;;;;;34.63;32.15;100509.23;1669705;83;21554;-53